sensor_id;sensor_type;location;lat;lon;timestamp;temperature;humidity
3925;DHT22;1977;52.274;10.518;2023-07-16T00:00:33;25.70;99.90
3925;DHT22;1977;52.274;10.518;2023-07-16T00:03:00;25.60;99.90
3925;DHT22;1977;52.274;10.518;2023-07-16T00:05:27;25.50;99.90
3925;DHT22;1977;52.274;10.518;2023-07-16T00:07:54;25.50;99.90
3925;DHT22;1977;52.274;10.518;2023-07-16T00:10:21;25.40;99.90
3925;DHT22;1977;52.274;10.518;2023-07-16T00:12:48;25.60;99.90
3925;DHT22;1977;52.274;10.518;2023-07-16T00:15:15;25.40;99.90
3925;DHT22;1977;52.274;10.518;2023-07-16T00:17:43;25.30;99.90
3925;DHT22;1977;52.274;10.518;2023-07-16T00:20:10;25.30;99.90
3925;DHT22;1977;52.274;10.518;2023-07-16T00:22:37;25.30;99.90
3925;DHT22;1977;52.274;10.518;2023-07-16T00:25:06;25.40;99.90
3925;DHT22;1977;52.274;10.518;2023-07-16T00:27:33;25.30;99.90
3925;DHT22;1977;52.274;10.518;2023-07-16T00:29:59;25.30;99.90
3925;DHT22;1977;52.274;10.518;2023-07-16T00:32:26;25.30;99.90
3925;DHT22;1977;52.274;10.518;2023-07-16T00:34:54;25.20;99.90
3925;DHT22;1977;52.274;10.518;2023-07-16T00:37:21;25.20;99.90
3925;DHT22;1977;52.274;10.518;2023-07-16T00:39:48;25.20;99.90
3925;DHT22;1977;52.274;10.518;2023-07-16T00:42:14;25.20;99.90
3925;DHT22;1977;52.274;10.518;2023-07-16T00:44:41;25.20;99.90
3925;DHT22;1977;52.274;10.518;2023-07-16T00:47:08;25.10;99.90
3925;DHT22;1977;52.274;10.518;2023-07-16T00:49:35;25.20;99.90
3925;DHT22;1977;52.274;10.518;2023-07-16T00:52:05;25.10;99.90
3925;DHT22;1977;52.274;10.518;2023-07-16T00:54:32;25.10;99.90
3925;DHT22;1977;52.274;10.518;2023-07-16T00:56:59;25.10;99.90
3925;DHT22;1977;52.274;10.518;2023-07-16T00:59:25;25.10;99.90
3925;DHT22;1977;52.274;10.518;2023-07-16T01:01:52;25.10;99.90
3925;DHT22;1977;52.274;10.518;2023-07-16T01:04:19;25.00;99.90
3925;DHT22;1977;52.274;10.518;2023-07-16T01:06:50;25.20;99.90
3925;DHT22;1977;52.274;10.518;2023-07-16T01:09:20;24.90;99.90
3925;DHT22;1977;52.274;10.518;2023-07-16T01:11:48;24.90;99.90
3925;DHT22;1977;52.274;10.518;2023-07-16T01:14:17;24.90;99.90
3925;DHT22;1977;52.274;10.518;2023-07-16T01:16:44;24.90;99.90
3925;DHT22;1977;52.274;10.518;2023-07-16T01:19:11;24.90;99.90
3925;DHT22;1977;52.274;10.518;2023-07-16T01:21:45;24.90;99.90
3925;DHT22;1977;52.274;10.518;2023-07-16T01:24:29;24.90;99.90
3925;DHT22;1977;52.274;10.518;2023-07-16T01:27:17;24.90;99.90
3925;DHT22;1977;52.274;10.518;2023-07-16T01:29:51;25.00;99.90
3925;DHT22;1977;52.274;10.518;2023-07-16T01:32:21;25.00;99.90
3925;DHT22;1977;52.274;10.518;2023-07-16T01:34:49;25.00;99.90
3925;DHT22;1977;52.274;10.518;2023-07-16T01:37:17;25.00;99.90
3925;DHT22;1977;52.274;10.518;2023-07-16T01:39:44;25.00;99.90
3925;DHT22;1977;52.274;10.518;2023-07-16T01:42:11;25.00;99.90
3925;DHT22;1977;52.274;10.518;2023-07-16T01:44:38;24.90;99.90
3925;DHT22;1977;52.274;10.518;2023-07-16T01:47:09;24.90;99.90
3925;DHT22;1977;52.274;10.518;2023-07-16T01:49:36;25.10;99.90
3925;DHT22;1977;52.274;10.518;2023-07-16T01:52:06;24.90;99.90
3925;DHT22;1977;52.274;10.518;2023-07-16T01:54:33;25.00;99.90
3925;DHT22;1977;52.274;10.518;2023-07-16T01:56:59;24.90;99.90
3925;DHT22;1977;52.274;10.518;2023-07-16T01:59:26;24.90;99.90
3925;DHT22;1977;52.274;10.518;2023-07-16T02:01:53;24.80;99.90
3925;DHT22;1977;52.274;10.518;2023-07-16T02:04:21;24.80;99.90
3925;DHT22;1977;52.274;10.518;2023-07-16T02:06:48;24.80;99.90
3925;DHT22;1977;52.274;10.518;2023-07-16T02:09:15;24.80;99.90
3925;DHT22;1977;52.274;10.518;2023-07-16T02:11:42;24.80;99.90
3925;DHT22;1977;52.274;10.518;2023-07-16T02:14:09;24.80;99.90
3925;DHT22;1977;52.274;10.518;2023-07-16T02:16:35;24.80;99.90
3925;DHT22;1977;52.274;10.518;2023-07-16T02:19:02;24.80;99.90
3925;DHT22;1977;52.274;10.518;2023-07-16T02:21:30;24.80;99.90
3925;DHT22;1977;52.274;10.518;2023-07-16T02:23:57;24.80;99.90
3925;DHT22;1977;52.274;10.518;2023-07-16T02:26:24;24.80;99.90
3925;DHT22;1977;52.274;10.518;2023-07-16T02:28:51;24.80;99.90
3925;DHT22;1977;52.274;10.518;2023-07-16T02:31:17;24.90;99.90
3925;DHT22;1977;52.274;10.518;2023-07-16T02:33:44;24.90;99.90
3925;DHT22;1977;52.274;10.518;2023-07-16T02:36:11;24.80;99.90
3925;DHT22;1977;52.274;10.518;2023-07-16T02:38:39;24.80;99.90
3925;DHT22;1977;52.274;10.518;2023-07-16T02:41:05;24.70;99.90
3925;DHT22;1977;52.274;10.518;2023-07-16T02:43:32;24.70;99.90
3925;DHT22;1977;52.274;10.518;2023-07-16T02:45:59;24.70;99.90
3925;DHT22;1977;52.274;10.518;2023-07-16T02:48:26;24.70;99.90
3925;DHT22;1977;52.274;10.518;2023-07-16T02:50:52;24.50;99.90
3925;DHT22;1977;52.274;10.518;2023-07-16T02:53:19;24.40;99.90
3925;DHT22;1977;52.274;10.518;2023-07-16T02:55:47;24.20;99.90
3925;DHT22;1977;52.274;10.518;2023-07-16T02:58:14;24.00;99.90
3925;DHT22;1977;52.274;10.518;2023-07-16T03:00:41;23.90;99.90
3925;DHT22;1977;52.274;10.518;2023-07-16T03:03:07;23.80;99.90
3925;DHT22;1977;52.274;10.518;2023-07-16T03:05:34;23.70;99.90
3925;DHT22;1977;52.274;10.518;2023-07-16T03:08:01;23.40;99.90
3925;DHT22;1977;52.274;10.518;2023-07-16T03:10:28;23.40;99.90
3925;DHT22;1977;52.274;10.518;2023-07-16T03:12:56;23.40;99.90
3925;DHT22;1977;52.274;10.518;2023-07-16T03:15:22;23.30;99.90
3925;DHT22;1977;52.274;10.518;2023-07-16T03:17:49;23.40;99.90
3925;DHT22;1977;52.274;10.518;2023-07-16T03:20:16;23.30;99.90
3925;DHT22;1977;52.274;10.518;2023-07-16T03:22:43;23.20;99.90
3925;DHT22;1977;52.274;10.518;2023-07-16T03:25:10;23.10;99.90
3925;DHT22;1977;52.274;10.518;2023-07-16T03:27:37;23.10;99.90
3925;DHT22;1977;52.274;10.518;2023-07-16T03:30:06;23.20;99.90
3925;DHT22;1977;52.274;10.518;2023-07-16T03:32:33;22.90;99.90
3925;DHT22;1977;52.274;10.518;2023-07-16T03:35:00;22.90;99.90
3925;DHT22;1977;52.274;10.518;2023-07-16T03:37:27;22.80;99.90
3925;DHT22;1977;52.274;10.518;2023-07-16T03:39:53;22.90;99.90
3925;DHT22;1977;52.274;10.518;2023-07-16T03:42:20;22.90;99.90
3925;DHT22;1977;52.274;10.518;2023-07-16T03:44:47;22.90;99.90
3925;DHT22;1977;52.274;10.518;2023-07-16T03:47:15;23.10;99.90
3925;DHT22;1977;52.274;10.518;2023-07-16T03:49:42;22.90;99.90
3925;DHT22;1977;52.274;10.518;2023-07-16T03:52:09;22.90;99.90
3925;DHT22;1977;52.274;10.518;2023-07-16T03:54:36;23.00;99.90
3925;DHT22;1977;52.274;10.518;2023-07-16T03:57:03;22.90;99.90
3925;DHT22;1977;52.274;10.518;2023-07-16T03:59:30;22.90;99.90
3925;DHT22;1977;52.274;10.518;2023-07-16T04:01:57;22.90;99.90
3925;DHT22;1977;52.274;10.518;2023-07-16T04:04:25;22.90;99.90
3925;DHT22;1977;52.274;10.518;2023-07-16T04:06:51;22.80;99.90
3925;DHT22;1977;52.274;10.518;2023-07-16T04:09:18;22.80;99.90
3925;DHT22;1977;52.274;10.518;2023-07-16T04:11:45;22.80;99.90
3925;DHT22;1977;52.274;10.518;2023-07-16T04:14:12;22.80;99.90
3925;DHT22;1977;52.274;10.518;2023-07-16T04:16:38;22.80;99.90
3925;DHT22;1977;52.274;10.518;2023-07-16T04:19:05;22.80;99.90
3925;DHT22;1977;52.274;10.518;2023-07-16T04:21:34;22.80;99.90
3925;DHT22;1977;52.274;10.518;2023-07-16T04:24:01;22.90;99.90
3925;DHT22;1977;52.274;10.518;2023-07-16T04:26:28;23.00;99.90
3925;DHT22;1977;52.274;10.518;2023-07-16T04:28:55;22.90;99.90
3925;DHT22;1977;52.274;10.518;2023-07-16T04:31:22;23.10;99.90
3925;DHT22;1977;52.274;10.518;2023-07-16T04:33:50;22.90;99.90
3925;DHT22;1977;52.274;10.518;2023-07-16T04:36:16;22.90;99.90
3925;DHT22;1977;52.274;10.518;2023-07-16T04:38:45;23.10;99.90
3925;DHT22;1977;52.274;10.518;2023-07-16T04:41:11;22.80;99.90
3925;DHT22;1977;52.274;10.518;2023-07-16T04:43:38;22.80;99.90
3925;DHT22;1977;52.274;10.518;2023-07-16T04:46:05;22.90;99.90
3925;DHT22;1977;52.274;10.518;2023-07-16T04:48:32;22.70;99.90
3925;DHT22;1977;52.274;10.518;2023-07-16T04:50:59;22.70;99.90
3925;DHT22;1977;52.274;10.518;2023-07-16T04:53:25;22.50;99.90
3925;DHT22;1977;52.274;10.518;2023-07-16T04:55:53;22.60;99.90
3925;DHT22;1977;52.274;10.518;2023-07-16T04:58:22;22.50;99.90
3925;DHT22;1977;52.274;10.518;2023-07-16T05:00:49;22.60;99.90
3925;DHT22;1977;52.274;10.518;2023-07-16T05:03:15;22.50;99.90
3925;DHT22;1977;52.274;10.518;2023-07-16T05:05:42;22.50;99.90
3925;DHT22;1977;52.274;10.518;2023-07-16T05:08:11;22.50;99.90
3925;DHT22;1977;52.274;10.518;2023-07-16T05:10:38;22.50;99.90
3925;DHT22;1977;52.274;10.518;2023-07-16T05:13:11;22.50;99.90
3925;DHT22;1977;52.274;10.518;2023-07-16T05:15:40;22.50;99.90
3925;DHT22;1977;52.274;10.518;2023-07-16T05:18:07;22.50;99.90
3925;DHT22;1977;52.274;10.518;2023-07-16T05:20:34;22.50;99.90
3925;DHT22;1977;52.274;10.518;2023-07-16T05:23:01;22.50;99.90
3925;DHT22;1977;52.274;10.518;2023-07-16T05:25:32;22.50;99.90
3925;DHT22;1977;52.274;10.518;2023-07-16T05:27:59;22.60;99.90
3925;DHT22;1977;52.274;10.518;2023-07-16T05:30:30;22.70;99.90
3925;DHT22;1977;52.274;10.518;2023-07-16T05:32:57;22.80;99.90
3925;DHT22;1977;52.274;10.518;2023-07-16T05:35:24;23.00;99.90
3925;DHT22;1977;52.274;10.518;2023-07-16T05:37:51;22.90;99.90
3925;DHT22;1977;52.274;10.518;2023-07-16T05:40:18;23.00;99.90
3925;DHT22;1977;52.274;10.518;2023-07-16T05:42:44;23.10;99.90
3925;DHT22;1977;52.274;10.518;2023-07-16T05:45:23;23.20;99.90
3925;DHT22;1977;52.274;10.518;2023-07-16T05:47:58;23.50;99.90
3925;DHT22;1977;52.274;10.518;2023-07-16T05:50:25;23.40;99.90
3925;DHT22;1977;52.274;10.518;2023-07-16T05:52:52;23.40;99.90
3925;DHT22;1977;52.274;10.518;2023-07-16T05:55:22;23.50;99.90
3925;DHT22;1977;52.274;10.518;2023-07-16T05:57:48;23.60;99.90
3925;DHT22;1977;52.274;10.518;2023-07-16T06:00:15;23.60;99.90
3925;DHT22;1977;52.274;10.518;2023-07-16T06:02:42;23.70;99.90
3925;DHT22;1977;52.274;10.518;2023-07-16T06:05:11;23.80;99.90
3925;DHT22;1977;52.274;10.518;2023-07-16T06:07:38;23.90;99.90
3925;DHT22;1977;52.274;10.518;2023-07-16T06:10:06;24.00;99.90
3925;DHT22;1977;52.274;10.518;2023-07-16T06:12:33;24.10;99.90
3925;DHT22;1977;52.274;10.518;2023-07-16T06:15:00;24.20;99.90
3925;DHT22;1977;52.274;10.518;2023-07-16T06:17:27;24.30;99.90
3925;DHT22;1977;52.274;10.518;2023-07-16T06:19:54;24.40;99.90
3925;DHT22;1977;52.274;10.518;2023-07-16T06:22:22;24.50;99.90
3925;DHT22;1977;52.274;10.518;2023-07-16T06:24:49;24.60;99.90
3925;DHT22;1977;52.274;10.518;2023-07-16T06:27:15;24.60;99.90
3925;DHT22;1977;52.274;10.518;2023-07-16T06:29:42;24.70;99.90
3925;DHT22;1977;52.274;10.518;2023-07-16T06:32:09;24.90;99.90
3925;DHT22;1977;52.274;10.518;2023-07-16T06:34:36;25.00;99.90
3925;DHT22;1977;52.274;10.518;2023-07-16T06:37:03;25.00;99.90
3925;DHT22;1977;52.274;10.518;2023-07-16T06:39:32;25.00;99.90
3925;DHT22;1977;52.274;10.518;2023-07-16T06:41:59;25.20;99.90
3925;DHT22;1977;52.274;10.518;2023-07-16T06:44:25;25.20;99.90
3925;DHT22;1977;52.274;10.518;2023-07-16T06:46:52;25.30;99.90
3925;DHT22;1977;52.274;10.518;2023-07-16T06:49:19;25.40;99.90
3925;DHT22;1977;52.274;10.518;2023-07-16T06:51:47;25.70;99.90
3925;DHT22;1977;52.274;10.518;2023-07-16T06:54:13;25.80;99.90
3925;DHT22;1977;52.274;10.518;2023-07-16T06:56:41;25.90;99.90
3925;DHT22;1977;52.274;10.518;2023-07-16T06:59:08;26.00;99.90
3925;DHT22;1977;52.274;10.518;2023-07-16T07:01:35;26.10;99.90
3925;DHT22;1977;52.274;10.518;2023-07-16T07:04:02;26.20;99.90
3925;DHT22;1977;52.274;10.518;2023-07-16T07:06:29;26.30;99.90
3925;DHT22;1977;52.274;10.518;2023-07-16T07:08:55;26.40;99.90
3925;DHT22;1977;52.274;10.518;2023-07-16T07:11:22;26.60;99.90
3925;DHT22;1977;52.274;10.518;2023-07-16T07:13:51;26.70;99.90
3925;DHT22;1977;52.274;10.518;2023-07-16T07:16:20;26.80;99.90
3925;DHT22;1977;52.274;10.518;2023-07-16T07:18:47;26.90;99.90
3925;DHT22;1977;52.274;10.518;2023-07-16T07:21:14;27.10;99.90
3925;DHT22;1977;52.274;10.518;2023-07-16T07:23:41;27.30;99.90
3925;DHT22;1977;52.274;10.518;2023-07-16T07:26:11;27.40;99.80
3925;DHT22;1977;52.274;10.518;2023-07-16T07:28:38;27.60;99.60
3925;DHT22;1977;52.274;10.518;2023-07-16T07:31:06;27.90;98.50
3925;DHT22;1977;52.274;10.518;2023-07-16T07:33:32;28.20;97.40
3925;DHT22;1977;52.274;10.518;2023-07-16T07:36:01;28.40;95.80
3925;DHT22;1977;52.274;10.518;2023-07-16T07:38:28;28.40;95.10
3925;DHT22;1977;52.274;10.518;2023-07-16T07:40:59;28.70;94.70
3925;DHT22;1977;52.274;10.518;2023-07-16T07:43:27;29.10;94.10
3925;DHT22;1977;52.274;10.518;2023-07-16T07:45:55;29.40;92.60
3925;DHT22;1977;52.274;10.518;2023-07-16T07:48:23;29.60;91.50
3925;DHT22;1977;52.274;10.518;2023-07-16T07:50:50;29.70;87.90
3925;DHT22;1977;52.274;10.518;2023-07-16T07:53:17;29.60;86.60
3925;DHT22;1977;52.274;10.518;2023-07-16T07:55:44;29.70;84.90
3925;DHT22;1977;52.274;10.518;2023-07-16T07:58:11;29.80;83.60
3925;DHT22;1977;52.274;10.518;2023-07-16T08:00:38;30.10;82.60
3925;DHT22;1977;52.274;10.518;2023-07-16T08:03:05;30.50;81.60
3925;DHT22;1977;52.274;10.518;2023-07-16T08:05:33;30.80;76.50
3925;DHT22;1977;52.274;10.518;2023-07-16T08:08:01;31.10;75.80
3925;DHT22;1977;52.274;10.518;2023-07-16T08:10:27;31.40;74.60
3925;DHT22;1977;52.274;10.518;2023-07-16T08:12:54;31.60;74.00
3925;DHT22;1977;52.274;10.518;2023-07-16T08:15:21;31.80;71.00
3925;DHT22;1977;52.274;10.518;2023-07-16T08:17:48;32.00;68.30
3925;DHT22;1977;52.274;10.518;2023-07-16T08:20:15;32.30;65.80
3925;DHT22;1977;52.274;10.518;2023-07-16T08:22:43;32.80;64.10
3925;DHT22;1977;52.274;10.518;2023-07-16T08:25:10;33.30;62.70
3925;DHT22;1977;52.274;10.518;2023-07-16T08:27:37;33.80;58.80
3925;DHT22;1977;52.274;10.518;2023-07-16T08:30:05;34.00;57.50
3925;DHT22;1977;52.274;10.518;2023-07-16T08:32:32;34.40;55.40
3925;DHT22;1977;52.274;10.518;2023-07-16T08:34:59;34.70;54.80
3925;DHT22;1977;52.274;10.518;2023-07-16T08:37:26;34.60;53.70
3925;DHT22;1977;52.274;10.518;2023-07-16T08:39:54;34.60;53.10
3925;DHT22;1977;52.274;10.518;2023-07-16T08:42:21;34.10;52.90
3925;DHT22;1977;52.274;10.518;2023-07-16T08:44:48;33.00;53.20
3925;DHT22;1977;52.274;10.518;2023-07-16T08:47:16;31.90;53.90
3925;DHT22;1977;52.274;10.518;2023-07-16T08:49:51;31.00;55.40
3925;DHT22;1977;52.274;10.518;2023-07-16T08:52:20;30.30;57.20
3925;DHT22;1977;52.274;10.518;2023-07-16T08:54:47;29.70;57.70
3925;DHT22;1977;52.274;10.518;2023-07-16T08:57:15;29.30;59.10
3925;DHT22;1977;52.274;10.518;2023-07-16T08:59:43;29.00;59.30
3925;DHT22;1977;52.274;10.518;2023-07-16T09:02:11;28.70;59.40
3925;DHT22;1977;52.274;10.518;2023-07-16T09:04:39;28.50;61.60
3925;DHT22;1977;52.274;10.518;2023-07-16T09:07:06;28.30;59.60
3925;DHT22;1977;52.274;10.518;2023-07-16T09:09:32;28.20;60.40
3925;DHT22;1977;52.274;10.518;2023-07-16T09:11:59;28.10;60.40
3925;DHT22;1977;52.274;10.518;2023-07-16T09:14:27;28.00;60.70
3925;DHT22;1977;52.274;10.518;2023-07-16T09:16:54;28.00;59.80
3925;DHT22;1977;52.274;10.518;2023-07-16T09:19:21;28.00;62.10
3925;DHT22;1977;52.274;10.518;2023-07-16T09:21:49;27.80;62.50
3925;DHT22;1977;52.274;10.518;2023-07-16T09:24:16;27.80;61.70
3925;DHT22;1977;52.274;10.518;2023-07-16T09:26:49;27.90;61.50
3925;DHT22;1977;52.274;10.518;2023-07-16T09:29:16;27.80;62.40
3925;DHT22;1977;52.274;10.518;2023-07-16T09:31:55;27.80;62.30
3925;DHT22;1977;52.274;10.518;2023-07-16T09:34:22;27.80;61.80
3925;DHT22;1977;52.274;10.518;2023-07-16T09:36:49;27.90;62.60
3925;DHT22;1977;52.274;10.518;2023-07-16T09:39:17;27.80;60.70
3925;DHT22;1977;52.274;10.518;2023-07-16T09:41:45;27.70;60.80
3925;DHT22;1977;52.274;10.518;2023-07-16T09:44:12;27.70;60.80
3925;DHT22;1977;52.274;10.518;2023-07-16T09:46:39;27.60;59.60
3925;DHT22;1977;52.274;10.518;2023-07-16T09:49:08;27.60;60.40
3925;DHT22;1977;52.274;10.518;2023-07-16T09:51:36;27.70;60.00
3925;DHT22;1977;52.274;10.518;2023-07-16T09:54:04;27.80;59.20
3925;DHT22;1977;52.274;10.518;2023-07-16T09:56:35;27.80;58.10
3925;DHT22;1977;52.274;10.518;2023-07-16T09:59:05;27.80;59.60
3925;DHT22;1977;52.274;10.518;2023-07-16T10:01:35;28.00;60.40
3925;DHT22;1977;52.274;10.518;2023-07-16T10:04:12;28.10;61.20
3925;DHT22;1977;52.274;10.518;2023-07-16T10:06:49;28.00;58.00
3925;DHT22;1977;52.274;10.518;2023-07-16T10:09:31;28.00;58.70
3925;DHT22;1977;52.274;10.518;2023-07-16T10:12:16;28.10;58.40
3925;DHT22;1977;52.274;10.518;2023-07-16T10:14:44;28.20;59.20
3925;DHT22;1977;52.274;10.518;2023-07-16T10:17:15;28.20;57.80
3925;DHT22;1977;52.274;10.518;2023-07-16T10:19:51;28.20;57.50
3925;DHT22;1977;52.274;10.518;2023-07-16T10:22:18;28.10;56.80
3925;DHT22;1977;52.274;10.518;2023-07-16T10:24:51;28.00;56.40
3925;DHT22;1977;52.274;10.518;2023-07-16T10:27:27;27.80;56.20
3925;DHT22;1977;52.274;10.518;2023-07-16T10:29:54;27.80;56.50
3925;DHT22;1977;52.274;10.518;2023-07-16T10:32:21;27.70;57.20
3925;DHT22;1977;52.274;10.518;2023-07-16T10:34:49;27.80;59.00
3925;DHT22;1977;52.274;10.518;2023-07-16T10:37:16;27.80;57.60
3925;DHT22;1977;52.274;10.518;2023-07-16T10:39:47;28.00;57.20
3925;DHT22;1977;52.274;10.518;2023-07-16T10:42:15;27.90;57.70
3925;DHT22;1977;52.274;10.518;2023-07-16T10:44:42;27.80;57.00
3925;DHT22;1977;52.274;10.518;2023-07-16T10:47:17;27.90;58.00
3925;DHT22;1977;52.274;10.518;2023-07-16T10:49:44;27.90;57.30
3925;DHT22;1977;52.274;10.518;2023-07-16T10:52:12;27.90;57.90
3925;DHT22;1977;52.274;10.518;2023-07-16T10:54:40;28.00;57.90
3925;DHT22;1977;52.274;10.518;2023-07-16T10:57:07;28.10;58.10
3925;DHT22;1977;52.274;10.518;2023-07-16T10:59:33;28.10;56.00
3925;DHT22;1977;52.274;10.518;2023-07-16T11:02:03;28.10;57.30
3925;DHT22;1977;52.274;10.518;2023-07-16T11:04:33;28.00;57.60
3925;DHT22;1977;52.274;10.518;2023-07-16T11:07:04;28.00;55.50
3925;DHT22;1977;52.274;10.518;2023-07-16T11:09:33;28.00;55.80
3925;DHT22;1977;52.274;10.518;2023-07-16T11:12:06;28.10;56.40
3925;DHT22;1977;52.274;10.518;2023-07-16T11:14:34;28.10;56.30
3925;DHT22;1977;52.274;10.518;2023-07-16T11:17:05;28.10;56.20
3925;DHT22;1977;52.274;10.518;2023-07-16T11:19:33;28.10;55.90
3925;DHT22;1977;52.274;10.518;2023-07-16T11:22:00;28.10;55.60
3925;DHT22;1977;52.274;10.518;2023-07-16T11:24:27;28.10;54.30
3925;DHT22;1977;52.274;10.518;2023-07-16T11:26:56;28.00;54.90
3925;DHT22;1977;52.274;10.518;2023-07-16T11:29:23;28.00;55.30
3925;DHT22;1977;52.274;10.518;2023-07-16T11:31:51;28.00;53.80
3925;DHT22;1977;52.274;10.518;2023-07-16T11:34:20;28.10;54.10
3925;DHT22;1977;52.274;10.518;2023-07-16T11:36:47;27.90;53.60
3925;DHT22;1977;52.274;10.518;2023-07-16T11:39:14;27.80;54.30
3925;DHT22;1977;52.274;10.518;2023-07-16T11:41:41;27.90;55.40
3925;DHT22;1977;52.274;10.518;2023-07-16T11:44:10;27.80;54.90
3925;DHT22;1977;52.274;10.518;2023-07-16T11:46:38;28.00;55.00
3925;DHT22;1977;52.274;10.518;2023-07-16T11:49:05;27.80;54.10
3925;DHT22;1977;52.274;10.518;2023-07-16T11:51:32;28.00;55.80
3925;DHT22;1977;52.274;10.518;2023-07-16T11:53:58;28.00;55.40
3925;DHT22;1977;52.274;10.518;2023-07-16T11:56:25;27.80;53.30
3925;DHT22;1977;52.274;10.518;2023-07-16T11:58:52;27.80;55.20
3925;DHT22;1977;52.274;10.518;2023-07-16T12:01:20;27.80;55.10
3925;DHT22;1977;52.274;10.518;2023-07-16T12:03:47;27.80;55.60
3925;DHT22;1977;52.274;10.518;2023-07-16T12:06:13;27.80;54.10
3925;DHT22;1977;52.274;10.518;2023-07-16T12:08:40;27.80;55.40
3925;DHT22;1977;52.274;10.518;2023-07-16T12:11:07;27.70;55.60
3925;DHT22;1977;52.274;10.518;2023-07-16T12:13:34;27.80;55.70
3925;DHT22;1977;52.274;10.518;2023-07-16T12:16:01;27.80;56.70
3925;DHT22;1977;52.274;10.518;2023-07-16T12:18:29;27.90;59.40
3925;DHT22;1977;52.274;10.518;2023-07-16T12:20:57;27.90;56.20
3925;DHT22;1977;52.274;10.518;2023-07-16T12:23:23;27.90;56.60
3925;DHT22;1977;52.274;10.518;2023-07-16T12:25:50;27.90;56.20
3925;DHT22;1977;52.274;10.518;2023-07-16T12:28:17;27.90;55.20
3925;DHT22;1977;52.274;10.518;2023-07-16T12:30:43;27.90;55.40
3925;DHT22;1977;52.274;10.518;2023-07-16T12:33:10;28.00;55.90
3925;DHT22;1977;52.274;10.518;2023-07-16T12:35:38;28.20;54.80
3925;DHT22;1977;52.274;10.518;2023-07-16T12:38:05;28.00;54.50
3925;DHT22;1977;52.274;10.518;2023-07-16T12:40:32;28.00;54.30
3925;DHT22;1977;52.274;10.518;2023-07-16T12:43:05;28.10;54.30
3925;DHT22;1977;52.274;10.518;2023-07-16T12:45:31;28.10;54.20
3925;DHT22;1977;52.274;10.518;2023-07-16T12:47:58;28.10;53.70
3925;DHT22;1977;52.274;10.518;2023-07-16T12:50:25;28.10;56.10
3925;DHT22;1977;52.274;10.518;2023-07-16T12:52:55;28.10;54.00
3925;DHT22;1977;52.274;10.518;2023-07-16T12:55:22;28.00;55.00
3925;DHT22;1977;52.274;10.518;2023-07-16T12:57:49;27.70;54.40
3925;DHT22;1977;52.274;10.518;2023-07-16T13:00:16;27.70;54.20
3925;DHT22;1977;52.274;10.518;2023-07-16T13:02:43;27.50;55.90
3925;DHT22;1977;52.274;10.518;2023-07-16T13:05:10;27.80;56.40
3925;DHT22;1977;52.274;10.518;2023-07-16T13:07:36;27.90;53.70
3925;DHT22;1977;52.274;10.518;2023-07-16T13:10:06;28.00;53.30
3925;DHT22;1977;52.274;10.518;2023-07-16T13:12:33;28.00;52.00
3925;DHT22;1977;52.274;10.518;2023-07-16T13:14:59;28.10;52.00
3925;DHT22;1977;52.274;10.518;2023-07-16T13:17:26;28.10;52.00
3925;DHT22;1977;52.274;10.518;2023-07-16T13:19:53;28.10;52.90
3925;DHT22;1977;52.274;10.518;2023-07-16T13:22:20;28.20;51.90
3925;DHT22;1977;52.274;10.518;2023-07-16T13:24:46;28.10;51.20
3925;DHT22;1977;52.274;10.518;2023-07-16T13:27:21;28.00;50.80
3925;DHT22;1977;52.274;10.518;2023-07-16T13:29:48;28.10;51.10
3925;DHT22;1977;52.274;10.518;2023-07-16T13:32:15;28.00;51.20
3925;DHT22;1977;52.274;10.518;2023-07-16T13:34:41;28.10;51.00
3925;DHT22;1977;52.274;10.518;2023-07-16T13:37:09;28.10;51.40
3925;DHT22;1977;52.274;10.518;2023-07-16T13:39:36;28.10;51.20
3925;DHT22;1977;52.274;10.518;2023-07-16T13:42:03;28.10;51.60
3925;DHT22;1977;52.274;10.518;2023-07-16T13:44:32;28.10;52.60
3925;DHT22;1977;52.274;10.518;2023-07-16T13:46:59;28.10;52.80
3925;DHT22;1977;52.274;10.518;2023-07-16T13:49:26;28.10;50.80
3925;DHT22;1977;52.274;10.518;2023-07-16T13:51:53;28.10;50.90
3925;DHT22;1977;52.274;10.518;2023-07-16T13:54:19;28.10;50.90
3925;DHT22;1977;52.274;10.518;2023-07-16T13:56:47;28.20;52.60
3925;DHT22;1977;52.274;10.518;2023-07-16T13:59:13;28.10;51.80
3925;DHT22;1977;52.274;10.518;2023-07-16T14:01:41;28.20;51.00
3925;DHT22;1977;52.274;10.518;2023-07-16T14:04:08;28.30;51.30
3925;DHT22;1977;52.274;10.518;2023-07-16T14:06:35;28.30;51.10
3925;DHT22;1977;52.274;10.518;2023-07-16T14:09:02;28.30;50.90
3925;DHT22;1977;52.274;10.518;2023-07-16T14:11:30;28.20;50.20
3925;DHT22;1977;52.274;10.518;2023-07-16T14:13:57;28.20;49.80
3925;DHT22;1977;52.274;10.518;2023-07-16T14:16:23;28.30;51.00
3925;DHT22;1977;52.274;10.518;2023-07-16T14:18:52;28.30;50.00
3925;DHT22;1977;52.274;10.518;2023-07-16T14:21:19;28.30;50.80
3925;DHT22;1977;52.274;10.518;2023-07-16T14:23:46;28.30;50.90
3925;DHT22;1977;52.274;10.518;2023-07-16T14:26:13;28.40;50.50
3925;DHT22;1977;52.274;10.518;2023-07-16T14:28:40;28.40;49.50
3925;DHT22;1977;52.274;10.518;2023-07-16T14:31:06;28.40;49.40
3925;DHT22;1977;52.274;10.518;2023-07-16T14:33:33;28.40;50.40
3925;DHT22;1977;52.274;10.518;2023-07-16T14:36:01;28.50;49.20
3925;DHT22;1977;52.274;10.518;2023-07-16T14:38:28;28.30;49.70
3925;DHT22;1977;52.274;10.518;2023-07-16T14:40:55;28.30;49.60
3925;DHT22;1977;52.274;10.518;2023-07-16T14:43:22;28.30;49.20
3925;DHT22;1977;52.274;10.518;2023-07-16T14:45:49;28.30;50.00
3925;DHT22;1977;52.274;10.518;2023-07-16T14:48:15;28.30;50.00
3925;DHT22;1977;52.274;10.518;2023-07-16T14:50:42;28.20;49.90
3925;DHT22;1977;52.274;10.518;2023-07-16T14:53:10;28.20;49.60
3925;DHT22;1977;52.274;10.518;2023-07-16T14:55:40;28.10;49.10
3925;DHT22;1977;52.274;10.518;2023-07-16T14:58:07;28.00;49.10
3925;DHT22;1977;52.274;10.518;2023-07-16T15:00:33;28.00;49.00
3925;DHT22;1977;52.274;10.518;2023-07-16T15:03:00;28.00;49.40
3925;DHT22;1977;52.274;10.518;2023-07-16T15:05:27;28.20;50.00
3925;DHT22;1977;52.274;10.518;2023-07-16T15:07:54;28.10;49.90
3925;DHT22;1977;52.274;10.518;2023-07-16T15:10:22;28.10;48.80
3925;DHT22;1977;52.274;10.518;2023-07-16T15:12:49;28.20;48.90
3925;DHT22;1977;52.274;10.518;2023-07-16T15:15:15;28.20;49.30
3925;DHT22;1977;52.274;10.518;2023-07-16T15:17:42;28.20;48.90
3925;DHT22;1977;52.274;10.518;2023-07-16T15:20:10;28.20;48.70
3925;DHT22;1977;52.274;10.518;2023-07-16T15:22:37;28.20;49.00
3925;DHT22;1977;52.274;10.518;2023-07-16T15:25:05;28.20;49.30
3925;DHT22;1977;52.274;10.518;2023-07-16T15:27:33;28.20;49.10
3925;DHT22;1977;52.274;10.518;2023-07-16T15:30:00;28.20;49.50
3925;DHT22;1977;52.274;10.518;2023-07-16T15:32:27;28.20;50.00
3925;DHT22;1977;52.274;10.518;2023-07-16T15:34:53;28.20;50.00
3925;DHT22;1977;52.274;10.518;2023-07-16T15:37:20;28.00;49.90
3925;DHT22;1977;52.274;10.518;2023-07-16T15:39:47;28.20;50.00
3925;DHT22;1977;52.274;10.518;2023-07-16T15:42:14;28.20;49.80
3925;DHT22;1977;52.274;10.518;2023-07-16T15:44:42;28.20;50.10
3925;DHT22;1977;52.274;10.518;2023-07-16T15:47:09;28.10;49.90